sensor_id;sensor_type;location;lat;lon;timestamp;temperature;humidity
65369;HTU21D;51970;53.484;49.488;2023-05-10T00:01:33;6.13;48.79
65369;HTU21D;51970;53.484;49.488;2023-05-10T00:03:59;6.10;49.05
65369;HTU21D;51970;53.484;49.488;2023-05-10T00:06:25;6.10;48.89
65369;HTU21D;51970;53.484;49.488;2023-05-10T00:08:52;6.10;48.82
65369;HTU21D;51970;53.484;49.488;2023-05-10T00:11:18;6.09;48.27
65369;HTU21D;51970;53.484;49.488;2023-05-10T00:13:44;6.07;48.44
65369;HTU21D;51970;53.484;49.488;2023-05-10T00:16:10;6.06;48.52
65369;HTU21D;51970;53.484;49.488;2023-05-10T00:18:39;6.05;48.29
65369;HTU21D;51970;53.484;49.488;2023-05-10T00:21:05;6.02;48.15
65369;HTU21D;51970;53.484;49.488;2023-05-10T00:23:32;6.00;48.47
65369;HTU21D;51970;53.484;49.488;2023-05-10T00:25:58;6.01;48.47
65369;HTU21D;51970;53.484;49.488;2023-05-10T00:28:24;5.99;47.96
65369;HTU21D;51970;53.484;49.488;2023-05-10T00:30:50;6.02;47.92
65369;HTU21D;51970;53.484;49.488;2023-05-10T00:33:16;6.04;48.05
65369;HTU21D;51970;53.484;49.488;2023-05-10T00:35:42;6.04;47.91
65369;HTU21D;51970;53.484;49.488;2023-05-10T00:38:08;6.02;47.70
65369;HTU21D;51970;53.484;49.488;2023-05-10T00:40:35;6.06;47.78
65369;HTU21D;51970;53.484;49.488;2023-05-10T00:43:03;6.08;48.03
65369;HTU21D;51970;53.484;49.488;2023-05-10T00:45:33;6.11;48.14
65369;HTU21D;51970;53.484;49.488;2023-05-10T00:48:02;6.13;47.89
65369;HTU21D;51970;53.484;49.488;2023-05-10T00:50:30;6.14;47.80
65369;HTU21D;51970;53.484;49.488;2023-05-10T00:52:58;6.17;47.61
65369;HTU21D;51970;53.484;49.488;2023-05-10T00:55:25;6.16;47.42
65369;HTU21D;51970;53.484;49.488;2023-05-10T00:57:53;6.23;47.24
65369;HTU21D;51970;53.484;49.488;2023-05-10T01:00:19;6.31;46.95
65369;HTU21D;51970;53.484;49.488;2023-05-10T01:02:46;6.39;46.96
65369;HTU21D;51970;53.484;49.488;2023-05-10T01:05:12;6.42;46.69
65369;HTU21D;51970;53.484;49.488;2023-05-10T01:07:39;6.60;46.22
65369;HTU21D;51970;53.484;49.488;2023-05-10T01:10:06;6.81;45.70
65369;HTU21D;51970;53.484;49.488;2023-05-10T01:12:35;7.12;44.65
65369;HTU21D;51970;53.484;49.488;2023-05-10T01:15:02;7.38;44.07
65369;HTU21D;51970;53.484;49.488;2023-05-10T01:17:29;7.85;42.90
65369;HTU21D;51970;53.484;49.488;2023-05-10T01:19:55;8.66;40.98
65369;HTU21D;51970;53.484;49.488;2023-05-10T01:25:37;10.19;37.50
65369;HTU21D;51970;53.484;49.488;2023-05-10T01:31:18;8.95;39.56
65369;HTU21D;51970;53.484;49.488;2023-05-10T01:34:06;8.36;41.19
65369;HTU21D;51970;53.484;49.488;2023-05-10T01:36:54;8.02;42.46
65369;HTU21D;51970;53.484;49.488;2023-05-10T01:39:45;7.81;43.22
65369;HTU21D;51970;53.484;49.488;2023-05-10T01:42:16;7.69;43.62
65369;HTU21D;51970;53.484;49.488;2023-05-10T01:47:22;7.60;44.22
65369;HTU21D;51970;53.484;49.488;2023-05-10T01:49:52;7.57;43.90
65369;HTU21D;51970;53.484;49.488;2023-05-10T01:52:26;7.58;44.56
65369;HTU21D;51970;53.484;49.488;2023-05-10T01:55:04;7.58;44.13
65369;HTU21D;51970;53.484;49.488;2023-05-10T01:57:36;7.58;43.94
65369;HTU21D;51970;53.484;49.488;2023-05-10T02:00:06;7.65;44.09
65369;HTU21D;51970;53.484;49.488;2023-05-10T02:02:38;7.73;44.27
65369;HTU21D;51970;53.484;49.488;2023-05-10T02:05:06;7.79;44.25
65369;HTU21D;51970;53.484;49.488;2023-05-10T02:07:36;7.78;44.38
65369;HTU21D;51970;53.484;49.488;2023-05-10T02:10:05;7.84;45.06
65369;HTU21D;51970;53.484;49.488;2023-05-10T02:12:36;7.90;44.66
65369;HTU21D;51970;53.484;49.488;2023-05-10T02:15:05;7.96;44.83
65369;HTU21D;51970;53.484;49.488;2023-05-10T02:17:32;8.00;43.70
65369;HTU21D;51970;53.484;49.488;2023-05-10T02:20:03;8.04;44.24
65369;HTU21D;51970;53.484;49.488;2023-05-10T02:22:31;7.96;44.27
65369;HTU21D;51970;53.484;49.488;2023-05-10T02:24:58;7.91;44.57
65369;HTU21D;51970;53.484;49.488;2023-05-10T02:27:27;7.90;44.38
65369;HTU21D;51970;53.484;49.488;2023-05-10T02:29:54;7.99;44.42
65369;HTU21D;51970;53.484;49.488;2023-05-10T02:32:22;8.04;43.56
65369;HTU21D;51970;53.484;49.488;2023-05-10T02:34:49;8.15;44.24
65369;HTU21D;51970;53.484;49.488;2023-05-10T02:37:19;8.24;44.00
65369;HTU21D;51970;53.484;49.488;2023-05-10T02:39:47;8.37;43.84
65369;HTU21D;51970;53.484;49.488;2023-05-10T02:42:17;8.41;43.09
65369;HTU21D;51970;53.484;49.488;2023-05-10T02:44:48;8.36;43.38
65369;HTU21D;51970;53.484;49.488;2023-05-10T02:47:15;8.38;43.60
65369;HTU21D;51970;53.484;49.488;2023-05-10T02:49:41;8.43;43.07
65369;HTU21D;51970;53.484;49.488;2023-05-10T02:52:07;8.46;43.60
65369;HTU21D;51970;53.484;49.488;2023-05-10T02:54:41;8.48;42.87
65369;HTU21D;51970;53.484;49.488;2023-05-10T02:57:12;8.53;42.77
65369;HTU21D;51970;53.484;49.488;2023-05-10T02:59:40;8.55;42.89
65369;HTU21D;51970;53.484;49.488;2023-05-10T03:02:12;8.65;42.61
65369;HTU21D;51970;53.484;49.488;2023-05-10T03:04:38;8.81;42.59
65369;HTU21D;51970;53.484;49.488;2023-05-10T03:07:04;9.05;42.49
65369;HTU21D;51970;53.484;49.488;2023-05-10T03:09:31;9.07;41.53
65369;HTU21D;51970;53.484;49.488;2023-05-10T03:12:07;9.08;41.88
65369;HTU21D;51970;53.484;49.488;2023-05-10T03:17:35;9.26;41.49
65369;HTU21D;51970;53.484;49.488;2023-05-10T03:20:22;9.25;41.38
65369;HTU21D;51970;53.484;49.488;2023-05-10T03:23:02;9.29;41.64
65369;HTU21D;51970;53.484;49.488;2023-05-10T03:25:31;9.32;40.92
65369;HTU21D;51970;53.484;49.488;2023-05-10T03:28:01;9.55;41.36
65369;HTU21D;51970;53.484;49.488;2023-05-10T03:30:28;9.59;40.71
65369;HTU21D;51970;53.484;49.488;2023-05-10T03:32:55;9.70;40.49
65369;HTU21D;51970;53.484;49.488;2023-05-10T03:35:23;9.89;40.43
65369;HTU21D;51970;53.484;49.488;2023-05-10T03:37:49;10.07;40.15
65369;HTU21D;51970;53.484;49.488;2023-05-10T03:40:16;10.10;40.52
65369;HTU21D;51970;53.484;49.488;2023-05-10T03:42:42;10.21;39.65
65369;HTU21D;51970;53.484;49.488;2023-05-10T03:45:09;10.31;40.21
65369;HTU21D;51970;53.484;49.488;2023-05-10T03:47:35;10.27;39.86
65369;HTU21D;51970;53.484;49.488;2023-05-10T03:50:02;10.35;39.88
65369;HTU21D;51970;53.484;49.488;2023-05-10T03:52:28;10.26;40.55
65369;HTU21D;51970;53.484;49.488;2023-05-10T03:54:54;10.36;40.13
65369;HTU21D;51970;53.484;49.488;2023-05-10T03:57:20;10.41;39.58
65369;HTU21D;51970;53.484;49.488;2023-05-10T03:59:47;10.36;39.94
65369;HTU21D;51970;53.484;49.488;2023-05-10T04:02:13;10.46;39.74
65369;HTU21D;51970;53.484;49.488;2023-05-10T04:04:40;10.53;40.16
65369;HTU21D;51970;53.484;49.488;2023-05-10T04:07:07;10.64;39.32
65369;HTU21D;51970;53.484;49.488;2023-05-10T04:09:33;10.72;38.60
65369;HTU21D;51970;53.484;49.488;2023-05-10T04:11:59;10.92;38.19
65369;HTU21D;51970;53.484;49.488;2023-05-10T04:14:28;10.81;37.69
65369;HTU21D;51970;53.484;49.488;2023-05-10T04:16:54;10.89;37.56
65369;HTU21D;51970;53.484;49.488;2023-05-10T04:19:21;10.93;37.47
65369;HTU21D;51970;53.484;49.488;2023-05-10T04:21:47;11.04;37.24
65369;HTU21D;51970;53.484;49.488;2023-05-10T04:24:13;11.28;36.64
65369;HTU21D;51970;53.484;49.488;2023-05-10T04:26:39;11.23;36.18
65369;HTU21D;51970;53.484;49.488;2023-05-10T04:29:05;11.44;36.18
65369;HTU21D;51970;53.484;49.488;2023-05-10T04:31:31;11.68;35.24
65369;HTU21D;51970;53.484;49.488;2023-05-10T04:33:58;11.73;35.08
65369;HTU21D;51970;53.484;49.488;2023-05-10T04:36:26;11.92;34.76
65369;HTU21D;51970;53.484;49.488;2023-05-10T04:38:56;11.99;33.94
65369;HTU21D;51970;53.484;49.488;2023-05-10T04:41:24;11.94;34.01
65369;HTU21D;51970;53.484;49.488;2023-05-10T04:43:51;12.00;34.28
65369;HTU21D;51970;53.484;49.488;2023-05-10T04:46:22;12.22;33.97
65369;HTU21D;51970;53.484;49.488;2023-05-10T04:49:08;12.59;33.89
65369;HTU21D;51970;53.484;49.488;2023-05-10T04:51:34;12.38;32.89
65369;HTU21D;51970;53.484;49.488;2023-05-10T04:54:01;12.22;33.61
65369;HTU21D;51970;53.484;49.488;2023-05-10T04:56:27;12.26;33.22
65369;HTU21D;51970;53.484;49.488;2023-05-10T04:58:58;12.22;33.51
65369;HTU21D;51970;53.484;49.488;2023-05-10T05:01:26;12.41;33.22
65369;HTU21D;51970;53.484;49.488;2023-05-10T05:03:53;12.49;32.54
65369;HTU21D;51970;53.484;49.488;2023-05-10T05:06:19;12.40;32.64
65369;HTU21D;51970;53.484;49.488;2023-05-10T05:08:54;12.48;32.42
65369;HTU21D;51970;53.484;49.488;2023-05-10T05:11:24;12.48;32.31
65369;HTU21D;51970;53.484;49.488;2023-05-10T05:13:51;12.57;31.79
65369;HTU21D;51970;53.484;49.488;2023-05-10T05:16:19;12.81;31.54
65369;HTU21D;51970;53.484;49.488;2023-05-10T05:18:59;13.15;31.81
65369;HTU21D;51970;53.484;49.488;2023-05-10T05:21:47;13.33;31.25
65369;HTU21D;51970;53.484;49.488;2023-05-10T05:24:13;13.48;31.41
65369;HTU21D;51970;53.484;49.488;2023-05-10T05:26:40;13.39;32.09
65369;HTU21D;51970;53.484;49.488;2023-05-10T05:29:09;13.63;31.57
65369;HTU21D;51970;53.484;49.488;2023-05-10T05:31:48;13.89;30.85
65369;HTU21D;51970;53.484;49.488;2023-05-10T05:34:14;13.77;29.87
65369;HTU21D;51970;53.484;49.488;2023-05-10T05:36:42;13.71;29.43
65369;HTU21D;51970;53.484;49.488;2023-05-10T05:39:08;13.54;30.24
65369;HTU21D;51970;53.484;49.488;2023-05-10T05:41:45;13.69;30.67
65369;HTU21D;51970;53.484;49.488;2023-05-10T05:44:36;14.07;30.76
65369;HTU21D;51970;53.484;49.488;2023-05-10T05:47:02;13.80;28.86
65369;HTU21D;51970;53.484;49.488;2023-05-10T05:49:29;13.53;30.21
65369;HTU21D;51970;53.484;49.488;2023-05-10T05:52:02;13.83;30.36
65369;HTU21D;51970;53.484;49.488;2023-05-10T05:54:51;13.94;28.13
65369;HTU21D;51970;53.484;49.488;2023-05-10T05:57:27;13.80;28.71
65369;HTU21D;51970;53.484;49.488;2023-05-10T05:59:53;13.79;28.65
65369;HTU21D;51970;53.484;49.488;2023-05-10T06:02:25;13.69;28.93
65369;HTU21D;51970;53.484;49.488;2023-05-10T06:04:52;13.78;28.99
65369;HTU21D;51970;53.484;49.488;2023-05-10T06:07:21;13.96;29.24
65369;HTU21D;51970;53.484;49.488;2023-05-10T06:09:50;14.20;29.04
65369;HTU21D;51970;53.484;49.488;2023-05-10T06:12:22;14.39;28.13
65369;HTU21D;51970;53.484;49.488;2023-05-10T06:14:50;14.37;28.45
65369;HTU21D;51970;53.484;49.488;2023-05-10T06:17:45;14.20;29.03
65369;HTU21D;51970;53.484;49.488;2023-05-10T06:20:57;14.30;28.86
65369;HTU21D;51970;53.484;49.488;2023-05-10T06:23:29;14.53;29.16
65369;HTU21D;51970;53.484;49.488;2023-05-10T06:25:56;14.74;28.25
65369;HTU21D;51970;53.484;49.488;2023-05-10T06:28:46;0.00;27.87
65369;HTU21D;51970;53.484;49.488;2023-05-10T06:31:17;14.30;28.39
65369;HTU21D;51970;53.484;49.488;2023-05-10T06:33:48;14.49;29.09
65369;HTU21D;51970;53.484;49.488;2023-05-10T06:36:38;0.00;28.37
65369;HTU21D;51970;53.484;49.488;2023-05-10T06:39:28;14.37;28.45
65369;HTU21D;51970;53.484;49.488;2023-05-10T06:42:02;14.49;28.10
65369;HTU21D;51970;53.484;49.488;2023-05-10T06:44:35;14.45;27.37
65369;HTU21D;51970;53.484;49.488;2023-05-10T06:47:11;14.55;27.20
65369;HTU21D;51970;53.484;49.488;2023-05-10T06:49:39;14.37;27.32
65369;HTU21D;51970;53.484;49.488;2023-05-10T06:52:29;14.39;27.17
65369;HTU21D;51970;53.484;49.488;2023-05-10T06:54:56;14.50;26.91
65369;HTU21D;51970;53.484;49.488;2023-05-10T06:57:23;14.66;26.57
65369;HTU21D;51970;53.484;49.488;2023-05-10T07:00:01;14.73;26.01
65369;HTU21D;51970;53.484;49.488;2023-05-10T07:02:32;14.68;26.01
65369;HTU21D;51970;53.484;49.488;2023-05-10T07:04:58;14.88;25.78
65369;HTU21D;51970;53.484;49.488;2023-05-10T07:07:26;14.88;25.00
65369;HTU21D;51970;53.484;49.488;2023-05-10T07:09:55;14.80;24.97
65369;HTU21D;51970;53.484;49.488;2023-05-10T07:12:22;14.96;25.53
65369;HTU21D;51970;53.484;49.488;2023-05-10T07:14:52;15.47;24.72
65369;HTU21D;51970;53.484;49.488;2023-05-10T07:17:19;15.28;24.51
65369;HTU21D;51970;53.484;49.488;2023-05-10T07:19:59;15.34;24.86
65369;HTU21D;51970;53.484;49.488;2023-05-10T07:22:26;15.44;23.50
65369;HTU21D;51970;53.484;49.488;2023-05-10T07:24:53;15.34;23.88
65369;HTU21D;51970;53.484;49.488;2023-05-10T07:27:21;15.33;23.92
65369;HTU21D;51970;53.484;49.488;2023-05-10T07:29:47;15.23;23.66
65369;HTU21D;51970;53.484;49.488;2023-05-10T07:32:14;15.38;24.20
65369;HTU21D;51970;53.484;49.488;2023-05-10T07:34:47;15.97;23.23
65369;HTU21D;51970;53.484;49.488;2023-05-10T07:37:14;15.87;22.98
65369;HTU21D;51970;53.484;49.488;2023-05-10T07:39:42;15.40;23.53
65369;HTU21D;51970;53.484;49.488;2023-05-10T07:42:26;14.98;24.75
65369;HTU21D;51970;53.484;49.488;2023-05-10T07:44:53;15.41;24.06
65369;HTU21D;51970;53.484;49.488;2023-05-10T07:47:19;15.63;23.86
65369;HTU21D;51970;53.484;49.488;2023-05-10T07:49:45;15.67;22.88
65369;HTU21D;51970;53.484;49.488;2023-05-10T07:52:39;15.33;24.07
65369;HTU21D;51970;53.484;49.488;2023-05-10T07:55:26;15.30;23.18
65369;HTU21D;51970;53.484;49.488;2023-05-10T07:57:55;15.32;24.09
65369;HTU21D;51970;53.484;49.488;2023-05-10T08:00:29;15.66;23.68
65369;HTU21D;51970;53.484;49.488;2023-05-10T08:02:57;15.91;23.21
65369;HTU21D;51970;53.484;49.488;2023-05-10T08:05:25;16.10;22.73
65369;HTU21D;51970;53.484;49.488;2023-05-10T08:07:52;15.82;23.16
65369;HTU21D;51970;53.484;49.488;2023-05-10T08:10:19;15.71;23.45
65369;HTU21D;51970;53.484;49.488;2023-05-10T08:12:58;15.89;23.31
65369;HTU21D;51970;53.484;49.488;2023-05-10T08:15:26;16.31;23.41
65369;HTU21D;51970;53.484;49.488;2023-05-10T08:17:52;16.47;22.76
65369;HTU21D;51970;53.484;49.488;2023-05-10T08:20:20;16.47;22.27
65369;HTU21D;51970;53.484;49.488;2023-05-10T08:22:47;16.35;22.68
65369;HTU21D;51970;53.484;49.488;2023-05-10T08:25:13;16.26;23.12
65369;HTU21D;51970;53.484;49.488;2023-05-10T08:27:39;16.35;22.42
65369;HTU21D;51970;53.484;49.488;2023-05-10T08:30:06;16.32;22.90
65369;HTU21D;51970;53.484;49.488;2023-05-10T08:32:39;16.22;22.82
65369;HTU21D;51970;53.484;49.488;2023-05-10T08:35:05;16.66;22.11
65369;HTU21D;51970;53.484;49.488;2023-05-10T08:37:31;16.61;22.08
65369;HTU21D;51970;53.484;49.488;2023-05-10T08:39:58;16.63;21.93
65369;HTU21D;51970;53.484;49.488;2023-05-10T08:42:28;16.51;22.24
65369;HTU21D;51970;53.484;49.488;2023-05-10T08:44:57;16.75;22.37
65369;HTU21D;51970;53.484;49.488;2023-05-10T08:47:25;16.66;21.98
65369;HTU21D;51970;53.484;49.488;2023-05-10T08:49:51;16.50;22.34
65369;HTU21D;51970;53.484;49.488;2023-05-10T08:52:21;16.51;22.32
65369;HTU21D;51970;53.484;49.488;2023-05-10T08:54:50;16.80;22.51
65369;HTU21D;51970;53.484;49.488;2023-05-10T08:57:17;17.05;21.85
65369;HTU21D;51970;53.484;49.488;2023-05-10T08:59:44;16.92;21.90
65369;HTU21D;51970;53.484;49.488;2023-05-10T09:02:11;16.71;22.11
65369;HTU21D;51970;53.484;49.488;2023-05-10T09:04:38;16.71;22.34
65369;HTU21D;51970;53.484;49.488;2023-05-10T09:07:06;16.88;22.31
65369;HTU21D;51970;53.484;49.488;2023-05-10T09:09:41;17.23;22.06
65369;HTU21D;51970;53.484;49.488;2023-05-10T09:12:09;17.15;21.98
65369;HTU21D;51970;53.484;49.488;2023-05-10T09:14:37;17.34;21.72
65369;HTU21D;51970;53.484;49.488;2023-05-10T09:17:04;17.14;22.62
65369;HTU21D;51970;53.484;49.488;2023-05-10T09:19:31;17.62;22.21
65369;HTU21D;51970;53.484;49.488;2023-05-10T09:21:59;17.68;21.38
65369;HTU21D;51970;53.484;49.488;2023-05-10T09:24:27;17.31;21.47
65369;HTU21D;51970;53.484;49.488;2023-05-10T09:26:54;17.19;22.06
65369;HTU21D;51970;53.484;49.488;2023-05-10T09:29:26;17.34;21.69
65369;HTU21D;51970;53.484;49.488;2023-05-10T09:31:53;17.77;21.83
65369;HTU21D;51970;53.484;49.488;2023-05-10T09:34:30;18.20;20.61
65369;HTU21D;51970;53.484;49.488;2023-05-10T09:36:59;18.29;20.93
65369;HTU21D;51970;53.484;49.488;2023-05-10T09:39:37;18.03;20.80
65369;HTU21D;51970;53.484;49.488;2023-05-10T09:42:09;17.54;21.50
65369;HTU21D;51970;53.484;49.488;2023-05-10T09:44:36;17.20;22.35
65369;HTU21D;51970;53.484;49.488;2023-05-10T09:47:05;17.19;21.91
65369;HTU21D;51970;53.484;49.488;2023-05-10T09:49:32;17.48;22.05
65369;HTU21D;51970;53.484;49.488;2023-05-10T09:52:03;17.90;21.21
65369;HTU21D;51970;53.484;49.488;2023-05-10T09:54:31;18.26;20.92
65369;HTU21D;51970;53.484;49.488;2023-05-10T09:56:57;18.29;20.34
65369;HTU21D;51970;53.484;49.488;2023-05-10T09:59:27;18.12;20.57
65369;HTU21D;51970;53.484;49.488;2023-05-10T10:01:58;18.15;20.44
65369;HTU21D;51970;53.484;49.488;2023-05-10T10:04:25;18.34;20.29
65369;HTU21D;51970;53.484;49.488;2023-05-10T10:07:00;18.57;20.54
65369;HTU21D;51970;53.484;49.488;2023-05-10T10:09:26;18.59;20.41
65369;HTU21D;51970;53.484;49.488;2023-05-10T10:11:54;18.41;20.30
65369;HTU21D;51970;53.484;49.488;2023-05-10T10:14:20;18.35;20.89
65369;HTU21D;51970;53.484;49.488;2023-05-10T10:16:47;18.22;20.44
65369;HTU21D;51970;53.484;49.488;2023-05-10T10:19:15;18.11;20.73
65369;HTU21D;51970;53.484;49.488;2023-05-10T10:21:44;17.93;20.99
65369;HTU21D;51970;53.484;49.488;2023-05-10T10:24:12;17.88;21.42
65369;HTU21D;51970;53.484;49.488;2023-05-10T10:26:46;17.98;21.16
65369;HTU21D;51970;53.484;49.488;2023-05-10T10:34:54;17.81;20.70
65369;HTU21D;51970;53.484;49.488;2023-05-10T10:37:22;17.79;21.09
65369;HTU21D;51970;53.484;49.488;2023-05-10T10:40:30;17.95;20.70
65369;HTU21D;51970;53.484;49.488;2023-05-10T10:43:27;18.25;21.05
65369;HTU21D;51970;53.484;49.488;2023-05-10T10:46:30;18.15;20.45
65369;HTU21D;51970;53.484;49.488;2023-05-10T10:49:11;18.38;20.64
65369;HTU21D;51970;53.484;49.488;2023-05-10T10:52:12;18.34;20.17
65369;HTU21D;51970;53.484;49.488;2023-05-10T10:54:32;18.09;20.74
65369;HTU21D;51970;53.484;49.488;2023-05-10T10:57:12;18.22;20.70
65369;HTU21D;51970;53.484;49.488;2023-05-10T11:00:17;18.18;20.05
65369;HTU21D;51970;53.484;49.488;2023-05-10T11:02:43;18.11;19.72
65369;HTU21D;51970;53.484;49.488;2023-05-10T11:05:41;18.12;20.59
65369;HTU21D;51970;53.484;49.488;2023-05-10T11:08:41;18.19;20.06
65369;HTU21D;51970;53.484;49.488;2023-05-10T11:11:52;18.20;20.32
65369;HTU21D;51970;53.484;49.488;2023-05-10T11:14:56;18.70;20.33
65369;HTU21D;51970;53.484;49.488;2023-05-10T11:17:49;18.99;19.02
65369;HTU21D;51970;53.484;49.488;2023-05-10T11:20:21;18.74;19.48
65369;HTU21D;51970;53.484;49.488;2023-05-10T11:22:54;18.53;19.67
65369;HTU21D;51970;53.484;49.488;2023-05-10T11:25:27;18.62;19.79
65369;HTU21D;51970;53.484;49.488;2023-05-10T11:27:55;18.63;19.39
65369;HTU21D;51970;53.484;49.488;2023-05-10T11:30:22;18.47;20.12
65369;HTU21D;51970;53.484;49.488;2023-05-10T11:32:49;18.57;19.96
65369;HTU21D;51970;53.484;49.488;2023-05-10T11:35:16;18.62;20.02
65369;HTU21D;51970;53.484;49.488;2023-05-10T11:37:42;18.70;19.86
65369;HTU21D;51970;53.484;49.488;2023-05-10T11:40:10;18.70;19.38
65369;HTU21D;51970;53.484;49.488;2023-05-10T11:42:37;18.54;19.96
65369;HTU21D;51970;53.484;49.488;2023-05-10T11:45:05;18.49;19.93
65369;HTU21D;51970;53.484;49.488;2023-05-10T11:47:31;18.59;19.69
65369;HTU21D;51970;53.484;49.488;2023-05-10T11:50:09;18.69;19.31
65369;HTU21D;51970;53.484;49.488;2023-05-10T11:52:38;19.02;19.71
65369;HTU21D;51970;53.484;49.488;2023-05-10T11:55:04;19.26;18.80
65369;HTU21D;51970;53.484;49.488;2023-05-10T11:57:32;18.83;18.76
65369;HTU21D;51970;53.484;49.488;2023-05-10T11:59:59;18.58;19.38
65369;HTU21D;51970;53.484;49.488;2023-05-10T12:02:26;18.73;19.61
65369;HTU21D;51970;53.484;49.488;2023-05-10T12:04:53;18.78;19.47
65369;HTU21D;51970;53.484;49.488;2023-05-10T12:07:20;18.91;19.38
65369;HTU21D;51970;53.484;49.488;2023-05-10T12:12:55;19.12;19.29
65369;HTU21D;51970;53.484;49.488;2023-05-10T12:15:23;19.06;19.37
65369;HTU21D;51970;53.484;49.488;2023-05-10T12:17:50;18.88;19.12
65369;HTU21D;51970;53.484;49.488;2023-05-10T12:20:23;18.76;19.18
65369;HTU21D;51970;53.484;49.488;2023-05-10T12:22:57;18.84;19.44
65369;HTU21D;51970;53.484;49.488;2023-05-10T12:25:30;18.83;19.06
65369;HTU21D;51970;53.484;49.488;2023-05-10T12:27:59;18.84;19.12
65369;HTU21D;51970;53.484;49.488;2023-05-10T12:30:32;18.82;19.26
65369;HTU21D;51970;53.484;49.488;2023-05-10T12:33:13;18.76;19.41
65369;HTU21D;51970;53.484;49.488;2023-05-10T12:35:48;18.85;19.48
65369;HTU21D;51970;53.484;49.488;2023-05-10T12:38:42;18.62;19.71
65369;HTU21D;51970;53.484;49.488;2023-05-10T12:41:16;18.84;19.93
65369;HTU21D;51970;53.484;49.488;2023-05-10T12:43:43;19.22;19.36
65369;HTU21D;51970;53.484;49.488;2023-05-10T12:46:16;19.02;18.83
65369;HTU21D;51970;53.484;49.488;2023-05-10T12:48:44;18.79;19.60
65369;HTU21D;51970;53.484;49.488;2023-05-10T12:51:11;18.59;19.67
65369;HTU21D;51970;53.484;49.488;2023-05-10T12:53:41;18.43;19.92
65369;HTU21D;51970;53.484;49.488;2023-05-10T12:56:08;18.43;19.20
65369;HTU21D;51970;53.484;49.488;2023-05-10T12:58:57;18.33;19.92
65369;HTU21D;51970;53.484;49.488;2023-05-10T13:01:23;18.42;20.18
65369;HTU21D;51970;53.484;49.488;2023-05-10T13:03:51;18.48;20.41
65369;HTU21D;51970;53.484;49.488;2023-05-10T13:06:23;18.57;20.17
65369;HTU21D;51970;53.484;49.488;2023-05-10T13:08:49;18.40;20.23
65369;HTU21D;51970;53.484;49.488;2023-05-10T13:11:15;18.43;20.01
65369;HTU21D;51970;53.484;49.488;2023-05-10T13:14:27;18.46;20.26
65369;HTU21D;51970;53.484;49.488;2023-05-10T13:16:56;18.38;20.29
65369;HTU21D;51970;53.484;49.488;2023-05-10T13:19:39;18.28;20.21
65369;HTU21D;51970;53.484;49.488;2023-05-10T13:22:07;18.34;19.99
65369;HTU21D;51970;53.484;49.488;2023-05-10T13:24:34;18.28;19.88
65369;HTU21D;51970;53.484;49.488;2023-05-10T13:27:15;18.23;20.17
65369;HTU21D;51970;53.484;49.488;2023-05-10T13:29:47;18.32;20.50
65369;HTU21D;51970;53.484;49.488;2023-05-10T13:35:59;18.30;20.09
65369;HTU21D;51970;53.484;49.488;2023-05-10T13:38:32;18.36;20.07
65369;HTU21D;51970;53.484;49.488;2023-05-10T13:41:01;18.28;19.54
65369;HTU21D;51970;53.484;49.488;2023-05-10T13:43:29;18.23;19.80
65369;HTU21D;51970;53.484;49.488;2023-05-10T13:46:22;18.28;19.97
65369;HTU21D;51970;53.484;49.488;2023-05-10T13:48:51;18.47;19.70
65369;HTU21D;51970;53.484;49.488;2023-05-10T13:51:19;18.33;19.53
65369;HTU21D;51970;53.484;49.488;2023-05-10T13:53:50;18.18;20.12
65369;HTU21D;51970;53.484;49.488;2023-05-10T13:56:21;18.27;19.42
65369;HTU21D;51970;53.484;49.488;2023-05-10T13:58:49;18.18;19.96
65369;HTU21D;51970;53.484;49.488;2023-05-10T14:01:16;18.18;19.32
65369;HTU21D;51970;53.484;49.488;2023-05-10T14:03:45;18.10;19.46
65369;HTU21D;51970;53.484;49.488;2023-05-10T14:06:14;18.03;19.61
65369;HTU21D;51970;53.484;49.488;2023-05-10T14:08:40;18.35;19.76
65369;HTU21D;51970;53.484;49.488;2023-05-10T14:11:06;18.43;19.09
65369;HTU21D;51970;53.484;49.488;2023-05-10T14:13:34;18.30;19.17
65369;HTU21D;51970;53.484;49.488;2023-05-10T14:16:01;18.19;19.44
65369;HTU21D;51970;53.484;49.488;2023-05-10T14:18:34;17.98;19.79
65369;HTU21D;51970;53.484;49.488;2023-05-10T14:21:07;17.88;20.34
65369;HTU21D;51970;53.484;49.488;2023-05-10T14:23:33;17.77;19.68
65369;HTU21D;51970;53.484;49.488;2023-05-10T14:26:00;17.68;20.58
65369;HTU21D;51970;53.484;49.488;2023-05-10T14:28:28;17.65;20.26
65369;HTU21D;51970;53.484;49.488;2023-05-10T14:30:55;17.70;20.32
65369;HTU21D;51970;53.484;49.488;2023-05-10T14:33:22;17.80;20.14
65369;HTU21D;51970;53.484;49.488;2023-05-10T14:35:56;17.84;20.25
65369;HTU21D;51970;53.484;49.488;2023-05-10T14:38:25;17.90;20.34
65369;HTU21D;51970;53.484;49.488;2023-05-10T14:41:02;17.78;20.75
65369;HTU21D;51970;53.484;49.488;2023-05-10T14:43:30;17.59;20.60
65369;HTU21D;51970;53.484;49.488;2023-05-10T14:46:22;17.53;21.37
65369;HTU21D;51970;53.484;49.488;2023-05-10T14:49:12;17.44;21.27
65369;HTU21D;51970;53.484;49.488;2023-05-10T14:52:06;17.32;21.28
65369;HTU21D;51970;53.484;49.488;2023-05-10T14:54:35;17.19;21.40
65369;HTU21D;51970;53.484;49.488;2023-05-10T14:57:01;17.11;21.60
65369;HTU21D;51970;53.484;49.488;2023-05-10T14:59:31;17.07;21.59
65369;HTU21D;51970;53.484;49.488;2023-05-10T15:01:59;17.04;21.69
65369;HTU21D;51970;53.484;49.488;2023-05-10T15:04:27;17.01;21.83
65369;HTU21D;51970;53.484;49.488;2023-05-10T15:06:54;16.94;21.90
65369;HTU21D;51970;53.484;49.488;2023-05-10T15:09:27;16.88;21.79
65369;HTU21D;51970;53.484;49.488;2023-05-10T15:12:12;16.85;21.68
65369;HTU21D;51970;53.484;49.488;2023-05-10T15:14:41;16.76;21.97
65369;HTU21D;51970;53.484;49.488;2023-05-10T15:17:08;16.65;22.43
65369;HTU21D;51970;53.484;49.488;2023-05-10T15:19:36;16.62;22.62
65369;HTU21D;51970;53.484;49.488;2023-05-10T15:22:07;16.55;22.95
65369;HTU21D;51970;53.484;49.488;2023-05-10T15:24:38;16.49;23.68
65369;HTU21D;51970;53.484;49.488;2023-05-10T15:27:06;16.37;24.65
65369;HTU21D;51970;53.484;49.488;2023-05-10T15:29:33;16.26;25.23
65369;HTU21D;51970;53.484;49.488;2023-05-10T15:32:12;16.14;25.82
65369;HTU21D;51970;53.484;49.488;2023-05-10T15:34:40;16.00;26.07
65369;HTU21D;51970;53.484;49.488;2023-05-10T15:37:15;15.91;26.44
65369;HTU21D;51970;53.484;49.488;2023-05-10T15:39:41;15.85;26.39
65369;HTU21D;51970;53.484;49.488;2023-05-10T15:42:09;15.83;26.81
65369;HTU21D;51970;53.484;49.488;2023-05-10T15:44:37;15.75;27.10
65369;HTU21D;51970;53.484;49.488;2023-05-10T15:47:10;15.68;27.17
65369;HTU21D;51970;53.484;49.488;2023-05-10T15:49:37;15.61;27.37
65369;HTU21D;51970;53.484;49.488;2023-05-10T15:52:09;15.53;27.79
65369;HTU21D;51970;53.484;49.488;2023-05-10T15:54:36;15.46;28.00